createdAt,value
2023-01-04T03:13:50.315Z,29.35
2023-01-04T03:16:42.477Z,29.13
2023-01-04T03:19:14.795Z,32.70
2023-01-04T03:21:46.233Z,30.00
2023-01-04T03:24:33.037Z,32.07
2023-01-04T03:27:26.423Z,31.55
2023-01-04T03:30:22.032Z,30.75
2023-01-04T03:33:23.232Z,30.85
2023-01-04T03:36:19.574Z,29.55
2023-01-04T03:39:31.390Z,33.50
2023-01-04T03:42:38.931Z,32.28
2023-01-04T03:45:41.580Z,33.15
2023-01-04T03:48:29.506Z,31.05
2023-01-04T03:51:15.659Z,33.90
2023-01-04T03:54:06.585Z,30.05
2023-01-04T03:56:41.719Z,27.92
2023-01-04T03:59:12.634Z,28.13
2023-01-04T04:01:43.650Z,32.25
2023-01-04T04:04:30.516Z,31.95
2023-01-04T04:07:16.085Z,29.75
2023-01-04T04:09:43.322Z,28.60
2023-01-04T04:12:10.283Z,30.45
2023-01-04T04:14:37.616Z,31.33
2023-01-04T04:17:04.638Z,29.83
2023-01-04T04:19:31.835Z,31.90
2023-01-04T04:21:58.790Z,29.98
2023-01-04T04:24:27.898Z,31.67
2023-01-04T04:26:55.993Z,33.15
2023-01-04T04:29:24.565Z,32.95
2023-01-04T04:31:51.977Z,33.53
2023-01-04T04:34:19.415Z,30.83
2023-01-04T04:36:46.364Z,32.38
2023-01-04T04:39:13.584Z,33.30
2023-01-04T04:41:41.705Z,32.45
2023-01-04T04:44:13.368Z,32.38
2023-01-04T04:46:41.429Z,32.38
2023-01-04T04:49:10.480Z,35.47
2023-01-04T04:51:38.423Z,31.67
2023-01-04T04:54:08.846Z,34.08
2023-01-04T04:56:39.587Z,32.10
2023-01-04T04:59:07.060Z,36.65
2023-01-04T05:01:34.249Z,34.08
2023-01-04T05:04:01.916Z,32.85
2023-01-04T05:06:29.190Z,32.53
2023-01-04T05:08:56.764Z,33.40
2023-01-04T05:11:42.591Z,33.22
2023-01-04T05:14:10.583Z,31.35
2023-01-04T05:16:37.659Z,33.65
2023-01-04T05:19:05.262Z,35.35
2023-01-04T05:21:32.191Z,34.17
2023-01-04T05:23:59.340Z,31.13
2023-01-04T05:26:26.263Z,38.53
2023-01-04T05:28:54.091Z,32.53
2023-01-04T05:31:21.970Z,31.40
2023-01-04T05:33:49.518Z,34.63
2023-01-04T05:36:16.598Z,33.13
2023-01-04T05:38:43.845Z,32.40
2023-01-04T05:41:29.876Z,33.33
2023-01-04T05:43:57.175Z,29.50
2023-01-04T05:46:24.200Z,33.95
2023-01-04T05:48:51.498Z,34.55
2023-01-04T05:51:18.453Z,35.17
2023-01-04T05:53:45.728Z,32.92
2023-01-04T05:56:12.680Z,34.95
2023-01-04T05:58:39.900Z,35.17
2023-01-04T06:01:07.705Z,36.50
2023-01-04T06:03:35.455Z,37.60
2023-01-04T06:06:02.505Z,29.73
2023-01-04T06:08:29.836Z,39.08
2023-01-04T06:10:57.027Z,33.38
2023-01-04T06:13:24.466Z,40.03
2023-01-04T06:15:51.351Z,34.95
2023-01-04T06:18:18.804Z,36.42
2023-01-04T06:20:45.838Z,35.00
2023-01-04T06:23:13.378Z,34.20
2023-01-04T06:25:40.438Z,32.78
2023-01-04T06:28:07.815Z,34.25
2023-01-04T06:30:47.428Z,38.78
2023-01-04T06:33:14.743Z,33.45
2023-01-04T06:35:41.647Z,33.25
2023-01-04T06:38:08.846Z,37.95
2023-01-04T06:40:35.787Z,34.20
2023-01-04T06:43:04.161Z,36.33
2023-01-04T06:45:31.070Z,37.90
2023-01-04T06:47:58.305Z,39.92
2023-01-04T06:50:25.381Z,41.17
2023-01-04T06:52:52.745Z,37.13
2023-01-04T06:55:19.614Z,36.40
2023-01-04T06:57:46.960Z,38.38
2023-01-04T07:00:14.930Z,36.03
2023-01-04T07:03:14.850Z,33.90
2023-01-04T07:05:29.490Z,36.40
2023-01-04T07:08:08.251Z,35.30
2023-01-04T07:10:35.922Z,34.30
2023-01-04T07:13:04.487Z,36.70
2023-01-04T07:15:38.617Z,37.40
2023-01-04T07:18:10.234Z,33.22
2023-01-04T07:20:38.572Z,34.88
2023-01-04T07:23:07.672Z,32.45
2023-01-04T07:25:34.731Z,36.35
2023-01-04T07:28:02.302Z,32.17
2023-01-04T07:30:29.688Z,36.15
2023-01-04T07:32:57.571Z,33.90
2023-01-04T07:35:25.051Z,36.30
2023-01-04T07:37:58.287Z,36.60
2023-01-04T07:40:27.478Z,35.22
2023-01-04T07:42:59.550Z,34.20
2023-01-04T07:45:37.934Z,37.13
2023-01-04T07:48:05.622Z,34.22
2023-01-04T07:50:32.612Z,33.08
2023-01-04T07:53:02.002Z,34.33
2023-01-04T07:55:28.994Z,38.08
2023-01-04T07:57:56.270Z,33.83
2023-01-04T08:00:23.366Z,37.03
2023-01-04T08:02:50.628Z,33.42
2023-01-04T08:05:17.928Z,34.17
2023-01-04T08:07:45.145Z,36.28
2023-01-04T08:10:13.458Z,35.28
2023-01-04T08:12:40.688Z,39.05
2023-01-04T08:15:08.235Z,32.13
2023-01-04T08:17:35.478Z,35.38
2023-01-04T08:20:02.595Z,32.88
2023-01-04T08:22:29.866Z,34.33
2023-01-04T08:24:56.793Z,34.65
2023-01-04T09:11:28.691Z,32.92
2023-01-04T09:14:06.757Z,41.00
2023-01-04T09:16:37.161Z,35.58
2023-01-04T09:19:05.512Z,36.95
2023-01-04T09:21:33.273Z,36.80
2023-01-04T09:24:00.335Z,39.65
2023-01-04T09:26:28.015Z,35.53
2023-01-04T09:29:00.276Z,41.33
2023-01-04T09:47:12.993Z,42.45
2023-01-04T09:49:45.713Z,42.40
2023-01-04T09:52:22.363Z,46.78
2023-01-04T09:55:37.691Z,41.13
2023-01-04T09:58:41.454Z,44.60
2023-01-04T10:01:15.582Z,44.70
2023-01-04T10:04:18.143Z,45.40
2023-01-04T10:06:45.384Z,44.35
2023-01-04T10:09:17.074Z,47.35
2023-01-04T10:12:18.528Z,46.23
2023-01-04T10:15:13.506Z,44.85
2023-01-04T10:19:50.379Z,48.33
2023-01-04T10:24:06.017Z,50.90
2023-01-04T10:26:47.972Z,53.35
2023-01-04T10:29:39.943Z,61.88
2023-01-04T10:33:00.774Z,60.20
2023-01-04T10:35:33.452Z,54.50
2023-01-04T10:38:10.195Z,54.33
2023-01-04T10:40:40.181Z,54.08
2023-01-04T10:44:11.837Z,55.50
2023-01-04T10:47:08.845Z,54.10
2023-01-04T10:49:56.608Z,55.13
2023-01-04T10:52:39.574Z,69.03
2023-01-04T11:04:44.769Z,65.72
2023-01-04T11:07:28.302Z,61.15
2023-01-04T11:10:07.195Z,62.40
2023-01-04T11:12:34.150Z,53.05
2023-01-04T11:15:02.017Z,48.63
2023-01-04T11:17:32.291Z,49.25
2023-01-04T11:19:59.586Z,40.38
2023-01-04T11:22:55.296Z,41.17
2023-01-04T11:25:35.174Z,41.85
2023-01-04T11:28:29.693Z,35.50
2023-01-04T11:31:08.373Z,41.78
2023-01-04T11:34:01.635Z,40.85
2023-01-04T11:36:38.214Z,35.85
2023-01-04T11:39:20.824Z,41.10
2023-01-04T11:42:04.532Z,37.47
2023-01-04T11:44:36.227Z,35.35
2023-01-04T11:47:24.308Z,27.88
2023-01-04T11:49:55.481Z,17.50
2023-01-04T11:52:36.035Z,12.43
2023-01-04T11:55:37.864Z,7.85
2023-01-04T11:58:31.030Z,4.93
2023-01-04T12:00:58.380Z,4.20
2023-01-04T12:03:45.945Z,4.32
2023-01-04T12:06:34.989Z,4.10
2023-01-04T12:09:03.136Z,3.88
2023-01-04T12:11:35.362Z,4.53
2023-01-04T12:22:19.823Z,5.72
2023-01-04T12:34:43.766Z,5.97
2023-01-04T12:37:51.158Z,4.28
2023-01-04T12:40:46.827Z,4.55
2023-01-04T12:43:16.853Z,2.95
2023-01-04T12:46:11.297Z,3.25
2023-01-04T12:48:56.731Z,3.85
2023-01-04T12:51:32.822Z,4.57
2023-01-04T12:54:05.726Z,4.50
2023-01-04T12:57:23.987Z,3.97
2023-01-04T13:00:03.048Z,3.45
2023-01-04T13:02:32.931Z,2.97
2023-01-04T13:08:15.048Z,3.53
2023-01-04T13:10:46.427Z,4.60
2023-01-04T13:13:39.224Z,6.47
2023-01-04T13:16:53.648Z,4.97
2023-01-04T13:19:25.180Z,3.08
2023-01-04T13:21:54.069Z,6.10
2023-01-04T13:24:32.894Z,5.45
2023-01-04T13:27:22.592Z,6.30
2023-01-04T13:29:52.157Z,5.25
2023-01-04T13:32:46.970Z,6.00
2023-01-04T13:41:30.538Z,7.70
2023-01-04T13:44:15.135Z,7.80
2023-01-04T13:46:43.702Z,7.47
2023-01-04T13:50:37.690Z,5.65
2023-01-04T13:53:08.478Z,5.60
2023-01-04T13:55:38.797Z,8.50
2023-01-04T13:58:17.922Z,6.90
2023-01-04T14:01:00.265Z,9.30
2023-01-04T14:03:41.582Z,7.88
2023-01-04T14:06:26.265Z,8.15
2023-01-04T14:09:20.762Z,8.07
2023-01-04T14:12:06.850Z,8.88
2023-01-04T14:14:43.926Z,6.38
2023-01-04T14:17:20.095Z,6.47
2023-01-04T14:20:14.941Z,7.40
2023-01-04T14:22:45.206Z,4.95
2023-01-04T14:25:34.050Z,5.00
2023-01-04T14:28:27.396Z,5.03
2023-01-04T14:31:14.418Z,6.32
2023-01-04T16:47:59.157Z,6.00
2023-01-04T16:50:26.803Z,3.92
2023-01-04T16:53:02.966Z,5.40
2023-01-04T16:55:30.852Z,5.22
2023-01-04T16:58:14.124Z,5.97
2023-01-04T17:00:49.593Z,5.13
2023-01-04T17:03:16.785Z,5.25
2023-01-04T21:48:42.843Z,3.83
2023-01-04T21:51:38.429Z,3.90
2023-01-04T21:54:05.986Z,2.90
2023-01-04T21:56:33.092Z,3.50
2023-01-04T21:59:05.117Z,2.53
2023-01-04T22:24:53.840Z,2.67
2023-01-04T22:27:51.134Z,1.90
2023-01-04T22:52:39.909Z,3.25
2023-01-04T23:20:20.225Z,2.22
2023-01-04T23:22:48.165Z,2.45
2023-01-04T23:25:15.518Z,2.10
2023-01-04T23:27:42.838Z,2.30
2023-01-04T23:30:10.876Z,1.75
2023-01-04T23:32:38.170Z,1.65
2023-01-04T23:35:05.577Z,3.13
2023-01-04T23:37:33.023Z,2.42
2023-01-04T23:40:00.217Z,1.98
2023-01-04T23:42:27.562Z,2.20
2023-01-04T23:44:54.654Z,3.00
2023-01-04T23:47:22.031Z,2.15
2023-01-04T23:49:48.987Z,2.13
2023-01-04T23:52:16.166Z,2.25
2023-01-04T23:54:43.082Z,1.40
2023-01-04T23:57:10.428Z,2.00
2023-01-04T23:59:37.416Z,2.13
